sensor_id;sensor_type;location;lat;lon;timestamp;temperature;humidity
74489;SHT31;62809;51.090;-115.358;2022-09-19T00:01:55;23.04;28.69
74489;SHT31;62809;51.090;-115.358;2022-09-19T00:04:24;23.04;28.63
74489;SHT31;62809;51.090;-115.358;2022-09-19T00:06:55;23.05;28.65
74489;SHT31;62809;51.090;-115.358;2022-09-19T00:09:25;23.05;28.65
74489;SHT31;62809;51.090;-115.358;2022-09-19T00:11:59;23.05;28.64
74489;SHT31;62809;51.090;-115.358;2022-09-19T00:14:28;23.06;28.61
74489;SHT31;62809;51.090;-115.358;2022-09-19T00:17:01;23.07;28.63
74489;SHT31;62809;51.090;-115.358;2022-09-19T00:19:36;23.06;28.64
74489;SHT31;62809;51.090;-115.358;2022-09-19T00:22:03;23.07;28.64
74489;SHT31;62809;51.090;-115.358;2022-09-19T00:24:31;23.07;28.60
74489;SHT31;62809;51.090;-115.358;2022-09-19T00:27:22;23.07;28.62
74489;SHT31;62809;51.090;-115.358;2022-09-19T00:29:54;23.07;28.67
74489;SHT31;62809;51.090;-115.358;2022-09-19T00:32:23;23.07;28.62
74489;SHT31;62809;51.090;-115.358;2022-09-19T00:34:52;23.08;28.67
74489;SHT31;62809;51.090;-115.358;2022-09-19T00:37:20;23.08;28.68
74489;SHT31;62809;51.090;-115.358;2022-09-19T00:39:49;23.08;28.69
74489;SHT31;62809;51.090;-115.358;2022-09-19T00:42:21;23.07;28.71
74489;SHT31;62809;51.090;-115.358;2022-09-19T00:44:55;23.08;28.71
74489;SHT31;62809;51.090;-115.358;2022-09-19T00:47:32;23.08;28.70
74489;SHT31;62809;51.090;-115.358;2022-09-19T00:50:07;23.08;28.71
74489;SHT31;62809;51.090;-115.358;2022-09-19T00:52:52;23.09;28.70
74489;SHT31;62809;51.090;-115.358;2022-09-19T00:55:25;23.08;28.70
74489;SHT31;62809;51.090;-115.358;2022-09-19T01:00:51;23.10;28.73
74489;SHT31;62809;51.090;-115.358;2022-09-19T01:03:22;23.10;28.75
74489;SHT31;62809;51.090;-115.358;2022-09-19T01:11:47;23.10;28.76
74489;SHT31;62809;51.090;-115.358;2022-09-19T01:17:15;23.12;28.76
74489;SHT31;62809;51.090;-115.358;2022-09-19T01:31:34;23.11;28.82
74489;SHT31;62809;51.090;-115.358;2022-09-19T01:39:27;23.10;28.85
74489;SHT31;62809;51.090;-115.358;2022-09-19T01:41:58;23.11;28.87
74489;SHT31;62809;51.090;-115.358;2022-09-19T01:44:26;23.11;28.84
74489;SHT31;62809;51.090;-115.358;2022-09-19T01:49:54;23.12;28.82
74489;SHT31;62809;51.090;-115.358;2022-09-19T01:58:40;23.12;28.85
74489;SHT31;62809;51.090;-115.358;2022-09-19T02:03:58;23.10;28.90
74489;SHT31;62809;51.090;-115.358;2022-09-19T02:09:32;23.08;28.90
74489;SHT31;62809;51.090;-115.358;2022-09-19T02:12:16;23.06;28.92
74489;SHT31;62809;51.090;-115.358;2022-09-19T02:14:49;23.04;28.96
74489;SHT31;62809;51.090;-115.358;2022-09-19T02:17:26;23.03;28.99
74489;SHT31;62809;51.090;-115.358;2022-09-19T02:20:12;23.02;29.00
74489;SHT31;62809;51.090;-115.358;2022-09-19T02:22:57;23.00;29.00
74489;SHT31;62809;51.090;-115.358;2022-09-19T02:25:46;22.99;29.02
74489;SHT31;62809;51.090;-115.358;2022-09-19T02:28:18;22.97;29.01
74489;SHT31;62809;51.090;-115.358;2022-09-19T02:30:54;22.97;29.04
74489;SHT31;62809;51.090;-115.358;2022-09-19T02:33:22;22.98;29.06
74489;SHT31;62809;51.090;-115.358;2022-09-19T02:36:05;22.96;29.07
74489;SHT31;62809;51.090;-115.358;2022-09-19T02:38:52;22.95;29.09
74489;SHT31;62809;51.090;-115.358;2022-09-19T02:41:37;22.95;29.08
74489;SHT31;62809;51.090;-115.358;2022-09-19T02:47:13;22.92;29.10
74489;SHT31;62809;51.090;-115.358;2022-09-19T02:49:53;22.92;29.10
74489;SHT31;62809;51.090;-115.358;2022-09-19T02:52:40;22.91;29.10
74489;SHT31;62809;51.090;-115.358;2022-09-19T02:55:13;22.89;29.11
74489;SHT31;62809;51.090;-115.358;2022-09-19T02:57:51;22.88;29.11
74489;SHT31;62809;51.090;-115.358;2022-09-19T03:00:24;22.87;29.10
74489;SHT31;62809;51.090;-115.358;2022-09-19T03:02:57;22.86;29.11
74489;SHT31;62809;51.090;-115.358;2022-09-19T03:05:55;22.84;29.12
74489;SHT31;62809;51.090;-115.358;2022-09-19T03:08:30;22.84;29.14
74489;SHT31;62809;51.090;-115.358;2022-09-19T03:11:03;22.83;29.17
74489;SHT31;62809;51.090;-115.358;2022-09-19T03:13:41;22.83;29.20
74489;SHT31;62809;51.090;-115.358;2022-09-19T03:18:43;22.82;29.20
74489;SHT31;62809;51.090;-115.358;2022-09-19T03:21:13;22.80;29.19
74489;SHT31;62809;51.090;-115.358;2022-09-19T03:23:47;22.80;29.20
74489;SHT31;62809;51.090;-115.358;2022-09-19T03:26:22;22.79;29.21
74489;SHT31;62809;51.090;-115.358;2022-09-19T03:28:58;22.78;29.21
74489;SHT31;62809;51.090;-115.358;2022-09-19T03:31:28;22.76;29.20
74489;SHT31;62809;51.090;-115.358;2022-09-19T03:33:58;22.76;29.21
74489;SHT31;62809;51.090;-115.358;2022-09-19T03:36:28;22.74;29.23
74489;SHT31;62809;51.090;-115.358;2022-09-19T03:38:59;22.74;29.21
74489;SHT31;62809;51.090;-115.358;2022-09-19T03:41:28;22.73;29.24
74489;SHT31;62809;51.090;-115.358;2022-09-19T03:43:57;22.72;29.19
74489;SHT31;62809;51.090;-115.358;2022-09-19T03:46:32;22.71;29.20
74489;SHT31;62809;51.090;-115.358;2022-09-19T03:49:00;22.70;29.21
74489;SHT31;62809;51.090;-115.358;2022-09-19T03:51:28;22.68;29.21
74489;SHT31;62809;51.090;-115.358;2022-09-19T03:53:57;22.67;29.22
74489;SHT31;62809;51.090;-115.358;2022-09-19T03:56:28;22.66;29.20
74489;SHT31;62809;51.090;-115.358;2022-09-19T03:58:55;22.65;29.19
74489;SHT31;62809;51.090;-115.358;2022-09-19T04:01:24;22.64;29.20
74489;SHT31;62809;51.090;-115.358;2022-09-19T04:03:51;22.64;29.21
74489;SHT31;62809;51.090;-115.358;2022-09-19T04:06:19;22.62;29.21
74489;SHT31;62809;51.090;-115.358;2022-09-19T04:08:48;22.61;29.20
74489;SHT31;62809;51.090;-115.358;2022-09-19T04:11:16;22.60;29.21
74489;SHT31;62809;51.090;-115.358;2022-09-19T04:13:44;22.60;29.22
74489;SHT31;62809;51.090;-115.358;2022-09-19T04:16:18;22.59;29.22
74489;SHT31;62809;51.090;-115.358;2022-09-19T04:18:46;22.58;29.22
74489;SHT31;62809;51.090;-115.358;2022-09-19T04:21:15;22.57;29.24
74489;SHT31;62809;51.090;-115.358;2022-09-19T04:23:44;22.56;29.28
74489;SHT31;62809;51.090;-115.358;2022-09-19T04:26:16;22.55;29.25
74489;SHT31;62809;51.090;-115.358;2022-09-19T04:28:46;22.55;29.22
74489;SHT31;62809;51.090;-115.358;2022-09-19T04:31:15;22.53;29.24
74489;SHT31;62809;51.090;-115.358;2022-09-19T04:33:44;22.53;29.20
74489;SHT31;62809;51.090;-115.358;2022-09-19T04:36:16;22.52;29.22
74489;SHT31;62809;51.090;-115.358;2022-09-19T04:38:44;22.51;29.21
74489;SHT31;62809;51.090;-115.358;2022-09-19T04:41:14;22.49;29.20
74489;SHT31;62809;51.090;-115.358;2022-09-19T04:43:42;22.49;29.21
74489;SHT31;62809;51.090;-115.358;2022-09-19T04:46:15;22.49;29.21
74489;SHT31;62809;51.090;-115.358;2022-09-19T04:48:46;22.47;29.22
74489;SHT31;62809;51.090;-115.358;2022-09-19T04:51:18;22.44;29.20
74489;SHT31;62809;51.090;-115.358;2022-09-19T04:53:50;22.44;29.22
74489;SHT31;62809;51.090;-115.358;2022-09-19T04:56:17;22.43;29.21
74489;SHT31;62809;51.090;-115.358;2022-09-19T04:58:46;22.42;29.21
74489;SHT31;62809;51.090;-115.358;2022-09-19T05:01:13;22.41;29.25
74489;SHT31;62809;51.090;-115.358;2022-09-19T05:03:42;22.40;29.22
74489;SHT31;62809;51.090;-115.358;2022-09-19T05:06:11;22.39;29.20
74489;SHT31;62809;51.090;-115.358;2022-09-19T05:08:39;22.38;29.24
74489;SHT31;62809;51.090;-115.358;2022-09-19T05:11:08;22.37;29.22
74489;SHT31;62809;51.090;-115.358;2022-09-19T05:13:37;22.36;29.20
74489;SHT31;62809;51.090;-115.358;2022-09-19T05:16:06;22.35;29.21
74489;SHT31;62809;51.090;-115.358;2022-09-19T05:18:36;22.33;29.21
74489;SHT31;62809;51.090;-115.358;2022-09-19T05:21:04;22.32;29.20
74489;SHT31;62809;51.090;-115.358;2022-09-19T05:23:36;22.31;29.20
74489;SHT31;62809;51.090;-115.358;2022-09-19T05:26:07;22.29;29.20
74489;SHT31;62809;51.090;-115.358;2022-09-19T05:28:42;22.28;29.21
74489;SHT31;62809;51.090;-115.358;2022-09-19T05:31:16;22.27;29.20
74489;SHT31;62809;51.090;-115.358;2022-09-19T05:33:48;22.27;29.21
74489;SHT31;62809;51.090;-115.358;2022-09-19T05:36:15;22.25;29.22
74489;SHT31;62809;51.090;-115.358;2022-09-19T05:38:46;22.25;29.19
74489;SHT31;62809;51.090;-115.358;2022-09-19T05:41:17;22.24;29.20
74489;SHT31;62809;51.090;-115.358;2022-09-19T05:43:44;22.23;29.21
74489;SHT31;62809;51.090;-115.358;2022-09-19T05:46:14;22.21;29.20
74489;SHT31;62809;51.090;-115.358;2022-09-19T05:48:51;22.21;29.20
74489;SHT31;62809;51.090;-115.358;2022-09-19T05:51:18;22.19;29.21
74489;SHT31;62809;51.090;-115.358;2022-09-19T05:53:47;22.18;29.24
74489;SHT31;62809;51.090;-115.358;2022-09-19T05:56:17;22.17;29.24
74489;SHT31;62809;51.090;-115.358;2022-09-19T05:58:45;22.16;29.23
74489;SHT31;62809;51.090;-115.358;2022-09-19T06:01:12;22.15;29.22
74489;SHT31;62809;51.090;-115.358;2022-09-19T06:03:40;22.13;29.23
74489;SHT31;62809;51.090;-115.358;2022-09-19T06:06:08;22.13;29.21
74489;SHT31;62809;51.090;-115.358;2022-09-19T06:08:39;22.12;29.20
74489;SHT31;62809;51.090;-115.358;2022-09-19T06:11:11;22.10;29.21
74489;SHT31;62809;51.090;-115.358;2022-09-19T06:13:39;22.09;29.20
74489;SHT31;62809;51.090;-115.358;2022-09-19T06:16:29;22.08;29.20
74489;SHT31;62809;51.090;-115.358;2022-09-19T06:18:56;22.06;29.20
74489;SHT31;62809;51.090;-115.358;2022-09-19T06:21:23;22.05;29.21
74489;SHT31;62809;51.090;-115.358;2022-09-19T06:23:51;22.03;29.20
74489;SHT31;62809;51.090;-115.358;2022-09-19T06:26:20;22.02;29.21
74489;SHT31;62809;51.090;-115.358;2022-09-19T06:28:48;22.01;29.21
74489;SHT31;62809;51.090;-115.358;2022-09-19T06:31:17;22.00;29.24
74489;SHT31;62809;51.090;-115.358;2022-09-19T06:33:44;21.99;29.21
74489;SHT31;62809;51.090;-115.358;2022-09-19T06:36:12;21.98;29.20
74489;SHT31;62809;51.090;-115.358;2022-09-19T06:38:41;21.97;29.21
74489;SHT31;62809;51.090;-115.358;2022-09-19T06:41:08;21.95;29.21
74489;SHT31;62809;51.090;-115.358;2022-09-19T06:43:38;21.95;29.20
74489;SHT31;62809;51.090;-115.358;2022-09-19T06:46:11;21.93;29.25
74489;SHT31;62809;51.090;-115.358;2022-09-19T06:48:38;21.92;29.21
74489;SHT31;62809;51.090;-115.358;2022-09-19T06:51:05;21.91;29.21
74489;SHT31;62809;51.090;-115.358;2022-09-19T06:53:35;21.90;29.21
74489;SHT31;62809;51.090;-115.358;2022-09-19T06:56:02;21.88;29.22
74489;SHT31;62809;51.090;-115.358;2022-09-19T06:58:34;21.89;29.20
74489;SHT31;62809;51.090;-115.358;2022-09-19T07:01:03;21.87;29.22
74489;SHT31;62809;51.090;-115.358;2022-09-19T07:03:30;21.86;29.20
74489;SHT31;62809;51.090;-115.358;2022-09-19T07:06:01;21.85;29.20
74489;SHT31;62809;51.090;-115.358;2022-09-19T07:08:29;21.83;29.21
74489;SHT31;62809;51.090;-115.358;2022-09-19T07:10:57;21.82;29.21
74489;SHT31;62809;51.090;-115.358;2022-09-19T07:13:25;21.81;29.20
74489;SHT31;62809;51.090;-115.358;2022-09-19T07:15:53;21.83;29.20
74489;SHT31;62809;51.090;-115.358;2022-09-19T07:18:22;21.81;29.20
74489;SHT31;62809;51.090;-115.358;2022-09-19T07:20:49;21.79;29.22
74489;SHT31;62809;51.090;-115.358;2022-09-19T07:23:18;21.77;29.22
74489;SHT31;62809;51.090;-115.358;2022-09-19T07:25:46;21.76;29.22
74489;SHT31;62809;51.090;-115.358;2022-09-19T07:28:16;21.75;29.20
74489;SHT31;62809;51.090;-115.358;2022-09-19T07:30:45;21.74;29.24
74489;SHT31;62809;51.090;-115.358;2022-09-19T07:33:14;21.74;29.20
74489;SHT31;62809;51.090;-115.358;2022-09-19T07:35:47;21.72;29.24
74489;SHT31;62809;51.090;-115.358;2022-09-19T07:38:20;21.71;29.22
74489;SHT31;62809;51.090;-115.358;2022-09-19T07:40:50;21.68;29.30
74489;SHT31;62809;51.090;-115.358;2022-09-19T07:43:20;21.67;29.30
74489;SHT31;62809;51.090;-115.358;2022-09-19T07:45:48;21.66;29.30
74489;SHT31;62809;51.090;-115.358;2022-09-19T07:48:21;21.66;29.30
74489;SHT31;62809;51.090;-115.358;2022-09-19T07:50:51;21.63;29.30
74489;SHT31;62809;51.090;-115.358;2022-09-19T07:53:22;21.62;29.30
74489;SHT31;62809;51.090;-115.358;2022-09-19T07:55:53;21.62;29.33
74489;SHT31;62809;51.090;-115.358;2022-09-19T07:58:23;21.61;29.31
74489;SHT31;62809;51.090;-115.358;2022-09-19T08:00:52;21.59;29.32
74489;SHT31;62809;51.090;-115.358;2022-09-19T08:03:24;21.58;29.35
74489;SHT31;62809;51.090;-115.358;2022-09-19T08:05:54;21.57;29.35
74489;SHT31;62809;51.090;-115.358;2022-09-19T08:08:27;21.57;29.37
74489;SHT31;62809;51.090;-115.358;2022-09-19T08:10:59;21.54;29.37
74489;SHT31;62809;51.090;-115.358;2022-09-19T08:13:28;21.53;29.39
74489;SHT31;62809;51.090;-115.358;2022-09-19T08:15:56;21.52;29.40
74489;SHT31;62809;51.090;-115.358;2022-09-19T08:18:26;21.51;29.40
74489;SHT31;62809;51.090;-115.358;2022-09-19T08:20:55;21.51;29.40
74489;SHT31;62809;51.090;-115.358;2022-09-19T08:23:22;21.50;29.40
74489;SHT31;62809;51.090;-115.358;2022-09-19T08:25:52;21.49;29.40
74489;SHT31;62809;51.090;-115.358;2022-09-19T08:28:21;21.48;29.40
74489;SHT31;62809;51.090;-115.358;2022-09-19T08:30:49;21.47;29.42
74489;SHT31;62809;51.090;-115.358;2022-09-19T08:33:21;21.46;29.41
74489;SHT31;62809;51.090;-115.358;2022-09-19T08:35:50;21.46;29.46
74489;SHT31;62809;51.090;-115.358;2022-09-19T08:38:18;21.44;29.49
74489;SHT31;62809;51.090;-115.358;2022-09-19T08:40:48;21.42;29.50
74489;SHT31;62809;51.090;-115.358;2022-09-19T08:43:24;21.41;29.50
74489;SHT31;62809;51.090;-115.358;2022-09-19T08:46:14;21.39;29.50
74489;SHT31;62809;51.090;-115.358;2022-09-19T08:49:08;21.38;29.50
74489;SHT31;62809;51.090;-115.358;2022-09-19T08:54:37;21.34;29.58
74489;SHT31;62809;51.090;-115.358;2022-09-19T08:57:13;21.31;29.59
74489;SHT31;62809;51.090;-115.358;2022-09-19T08:59:54;21.30;29.60
74489;SHT31;62809;51.090;-115.358;2022-09-19T09:05:11;21.29;29.61
74489;SHT31;62809;51.090;-115.358;2022-09-19T09:16:22;21.25;29.69
74489;SHT31;62809;51.090;-115.358;2022-09-19T09:24:34;21.22;29.73
74489;SHT31;62809;51.090;-115.358;2022-09-19T09:27:12;21.21;29.76
74489;SHT31;62809;51.090;-115.358;2022-09-19T09:29:45;21.21;29.77
74489;SHT31;62809;51.090;-115.358;2022-09-19T09:32:30;21.21;29.79
74489;SHT31;62809;51.090;-115.358;2022-09-19T09:35:09;21.20;29.80
74489;SHT31;62809;51.090;-115.358;2022-09-19T09:37:54;21.19;29.80
74489;SHT31;62809;51.090;-115.358;2022-09-19T09:43:26;21.17;29.80
74489;SHT31;62809;51.090;-115.358;2022-09-19T09:46:12;21.16;29.83
74489;SHT31;62809;51.090;-115.358;2022-09-19T09:48:50;21.14;29.85
74489;SHT31;62809;51.090;-115.358;2022-09-19T09:57:47;21.11;29.86
74489;SHT31;62809;51.090;-115.358;2022-09-19T10:00:30;21.10;29.88
74489;SHT31;62809;51.090;-115.358;2022-09-19T10:03:32;21.08;29.89
74489;SHT31;62809;51.090;-115.358;2022-09-19T10:11:40;21.04;29.90
74489;SHT31;62809;51.090;-115.358;2022-09-19T10:14:33;21.03;29.92
74489;SHT31;62809;51.090;-115.358;2022-09-19T10:17:04;21.01;29.92
74489;SHT31;62809;51.090;-115.358;2022-09-19T10:19:39;21.00;29.94
74489;SHT31;62809;51.090;-115.358;2022-09-19T10:22:13;20.98;29.93
74489;SHT31;62809;51.090;-115.358;2022-09-19T10:27:26;20.95;29.99
74489;SHT31;62809;51.090;-115.358;2022-09-19T10:32:44;20.93;30.01
74489;SHT31;62809;51.090;-115.358;2022-09-19T10:35:33;20.92;30.01
74489;SHT31;62809;51.090;-115.358;2022-09-19T10:46:17;20.88;30.12
74489;SHT31;62809;51.090;-115.358;2022-09-19T10:49:04;20.88;30.16
74489;SHT31;62809;51.090;-115.358;2022-09-19T10:51:49;20.88;30.17
74489;SHT31;62809;51.090;-115.358;2022-09-19T11:00:22;20.85;30.20
74489;SHT31;62809;51.090;-115.358;2022-09-19T11:08:41;20.81;30.23
74489;SHT31;62809;51.090;-115.358;2022-09-19T11:14:19;20.78;30.24
74489;SHT31;62809;51.090;-115.358;2022-09-19T11:25:58;20.73;30.34
74489;SHT31;62809;51.090;-115.358;2022-09-19T11:31:58;20.71;30.40
74489;SHT31;62809;51.090;-115.358;2022-09-19T11:41:20;20.67;30.56
74489;SHT31;62809;51.090;-115.358;2022-09-19T11:50:19;20.66;30.64
74489;SHT31;62809;51.090;-115.358;2022-09-19T11:59:19;20.63;30.76
74489;SHT31;62809;51.090;-115.358;2022-09-19T12:05:17;20.60;30.83
74489;SHT31;62809;51.090;-115.358;2022-09-19T12:11:40;20.59;30.89
74489;SHT31;62809;51.090;-115.358;2022-09-19T12:14:35;20.57;30.90
74489;SHT31;62809;51.090;-115.358;2022-09-19T12:19:57;20.55;30.97
74489;SHT31;62809;51.090;-115.358;2022-09-19T12:22:46;20.55;30.98
74489;SHT31;62809;51.090;-115.358;2022-09-19T12:25:25;20.54;31.00
74489;SHT31;62809;51.090;-115.358;2022-09-19T12:28:00;20.54;31.02
74489;SHT31;62809;51.090;-115.358;2022-09-19T12:30:41;20.53;31.00
74489;SHT31;62809;51.090;-115.358;2022-09-19T12:36:28;20.52;31.04
74489;SHT31;62809;51.090;-115.358;2022-09-19T12:39:19;20.51;31.07
74489;SHT31;62809;51.090;-115.358;2022-09-19T12:42:08;20.50;31.10
74489;SHT31;62809;51.090;-115.358;2022-09-19T12:47:46;20.49;31.19
74489;SHT31;62809;51.090;-115.358;2022-09-19T12:50:52;20.49;31.20
74489;SHT31;62809;51.090;-115.358;2022-09-19T12:53:31;20.48;31.26
74489;SHT31;62809;51.090;-115.358;2022-09-19T12:56:39;20.48;31.29
74489;SHT31;62809;51.090;-115.358;2022-09-19T12:59:26;20.47;31.30
74489;SHT31;62809;51.090;-115.358;2022-09-19T13:07:19;20.45;31.40
74489;SHT31;62809;51.090;-115.358;2022-09-19T13:10:07;20.44;31.40
74489;SHT31;62809;51.090;-115.358;2022-09-19T13:15:21;20.41;31.40
74489;SHT31;62809;51.090;-115.358;2022-09-19T13:18:00;20.41;31.45
74489;SHT31;62809;51.090;-115.358;2022-09-19T13:20:50;20.40;31.46
74489;SHT31;62809;51.090;-115.358;2022-09-19T13:23:35;20.38;31.47
74489;SHT31;62809;51.090;-115.358;2022-09-19T13:28:54;20.34;31.44
74489;SHT31;62809;51.090;-115.358;2022-09-19T13:31:31;20.33;31.47
74489;SHT31;62809;51.090;-115.358;2022-09-19T13:48:37;20.31;31.67
74489;SHT31;62809;51.090;-115.358;2022-09-19T14:02:04;20.55;31.90
74489;SHT31;62809;51.090;-115.358;2022-09-19T14:12:47;20.65;32.00
74489;SHT31;62809;51.090;-115.358;2022-09-19T14:23:28;20.67;32.05
74489;SHT31;62809;51.090;-115.358;2022-09-19T14:26:02;20.67;32.10
74489;SHT31;62809;51.090;-115.358;2022-09-19T14:48:36;20.74;32.14
74489;SHT31;62809;51.090;-115.358;2022-09-19T14:56:55;20.82;32.23
74489;SHT31;62809;51.090;-115.358;2022-09-19T14:59:31;20.82;32.30
74489;SHT31;62809;51.090;-115.358;2022-09-19T15:05:03;20.82;32.64
74489;SHT31;62809;51.090;-115.358;2022-09-19T15:07:41;20.81;32.61
74489;SHT31;62809;51.090;-115.358;2022-09-19T15:10:20;20.82;32.60
74489;SHT31;62809;51.090;-115.358;2022-09-19T15:15:46;20.82;32.68
74489;SHT31;62809;51.090;-115.358;2022-09-19T15:20:58;20.82;32.76
74489;SHT31;62809;51.090;-115.358;2022-09-19T15:23:29;20.82;32.83
74489;SHT31;62809;51.090;-115.358;2022-09-19T15:26:01;20.82;32.90
74489;SHT31;62809;51.090;-115.358;2022-09-19T15:28:35;20.81;32.94
74489;SHT31;62809;51.090;-115.358;2022-09-19T15:31:03;20.81;32.97
74489;SHT31;62809;51.090;-115.358;2022-09-19T15:33:53;20.81;33.06
74489;SHT31;62809;51.090;-115.358;2022-09-19T15:36:27;20.82;33.09
74489;SHT31;62809;51.090;-115.358;2022-09-19T15:39:01;20.81;33.11
74489;SHT31;62809;51.090;-115.358;2022-09-19T15:41:30;20.80;33.17
74489;SHT31;62809;51.090;-115.358;2022-09-19T15:44:00;20.79;33.17
74489;SHT31;62809;51.090;-115.358;2022-09-19T15:51:53;20.80;33.28
74489;SHT31;62809;51.090;-115.358;2022-09-19T15:54:47;20.78;33.29
74489;SHT31;62809;51.090;-115.358;2022-09-19T15:57:19;20.79;33.29
74489;SHT31;62809;51.090;-115.358;2022-09-19T16:02:42;20.79;33.34
74489;SHT31;62809;51.090;-115.358;2022-09-19T16:05:31;20.78;33.35
74489;SHT31;62809;51.090;-115.358;2022-09-19T16:08:02;20.78;33.39
74489;SHT31;62809;51.090;-115.358;2022-09-19T16:16:54;20.75;33.50
74489;SHT31;62809;51.090;-115.358;2022-09-19T16:22:05;20.73;33.57
74489;SHT31;62809;51.090;-115.358;2022-09-19T16:24:39;20.73;33.58
74489;SHT31;62809;51.090;-115.358;2022-09-19T16:27:12;20.73;33.61
74489;SHT31;62809;51.090;-115.358;2022-09-19T16:29:46;20.72;33.68
74489;SHT31;62809;51.090;-115.358;2022-09-19T16:32:15;20.72;33.70
74489;SHT31;62809;51.090;-115.358;2022-09-19T16:34:49;20.71;33.70
74489;SHT31;62809;51.090;-115.358;2022-09-19T16:37:29;20.73;33.72
74489;SHT31;62809;51.090;-115.358;2022-09-19T16:42:53;20.71;33.85
74489;SHT31;62809;51.090;-115.358;2022-09-19T16:45:21;20.72;33.90
74489;SHT31;62809;51.090;-115.358;2022-09-19T16:48:03;20.73;33.89
74489;SHT31;62809;51.090;-115.358;2022-09-19T16:50:39;20.73;33.89
74489;SHT31;62809;51.090;-115.358;2022-09-19T16:53:11;20.74;33.91
74489;SHT31;62809;51.090;-115.358;2022-09-19T16:55:40;20.74;33.96
74489;SHT31;62809;51.090;-115.358;2022-09-19T16:58:11;20.74;34.02
74489;SHT31;62809;51.090;-115.358;2022-09-19T17:00:42;20.74;34.08
74489;SHT31;62809;51.090;-115.358;2022-09-19T17:03:13;20.74;34.10
74489;SHT31;62809;51.090;-115.358;2022-09-19T17:05:45;20.73;34.14
74489;SHT31;62809;51.090;-115.358;2022-09-19T17:08:12;20.74;34.18
74489;SHT31;62809;51.090;-115.358;2022-09-19T17:10:42;20.74;34.20
74489;SHT31;62809;51.090;-115.358;2022-09-19T17:13:13;20.75;34.22
74489;SHT31;62809;51.090;-115.358;2022-09-19T17:18:24;20.74;34.27
74489;SHT31;62809;51.090;-115.358;2022-09-19T17:20:54;20.74;34.31
74489;SHT31;62809;51.090;-115.358;2022-09-19T17:23:26;20.76;34.38
74489;SHT31;62809;51.090;-115.358;2022-09-19T17:25:55;20.77;34.39
74489;SHT31;62809;51.090;-115.358;2022-09-19T17:28:25;20.77;34.38
74489;SHT31;62809;51.090;-115.358;2022-09-19T17:30:55;20.76;34.35
74489;SHT31;62809;51.090;-115.358;2022-09-19T17:33:26;20.75;34.32
74489;SHT31;62809;51.090;-115.358;2022-09-19T17:35:55;20.75;34.34
74489;SHT31;62809;51.090;-115.358;2022-09-19T17:38:27;20.75;34.35
74489;SHT31;62809;51.090;-115.358;2022-09-19T17:40:58;20.76;34.35
74489;SHT31;62809;51.090;-115.358;2022-09-19T17:43:25;20.76;34.32
74489;SHT31;62809;51.090;-115.358;2022-09-19T17:46:00;20.76;34.39
74489;SHT31;62809;51.090;-115.358;2022-09-19T17:48:31;20.76;34.40
74489;SHT31;62809;51.090;-115.358;2022-09-19T17:51:07;20.76;34.40
74489;SHT31;62809;51.090;-115.358;2022-09-19T17:53:39;20.76;34.32
74489;SHT31;62809;51.090;-115.358;2022-09-19T17:58:42;20.76;34.25
74489;SHT31;62809;51.090;-115.358;2022-09-19T18:01:14;20.77;34.28
74489;SHT31;62809;51.090;-115.358;2022-09-19T18:04:05;20.76;34.26
74489;SHT31;62809;51.090;-115.358;2022-09-19T18:06:33;20.76;34.24
74489;SHT31;62809;51.090;-115.358;2022-09-19T18:09:01;20.76;34.22
74489;SHT31;62809;51.090;-115.358;2022-09-19T18:11:33;20.76;34.23
74489;SHT31;62809;51.090;-115.358;2022-09-19T18:14:08;20.77;34.22
74489;SHT31;62809;51.090;-115.358;2022-09-19T18:16:35;20.77;34.20
74489;SHT31;62809;51.090;-115.358;2022-09-19T18:19:06;20.78;34.20
74489;SHT31;62809;51.090;-115.358;2022-09-19T18:21:36;20.78;34.19
74489;SHT31;62809;51.090;-115.358;2022-09-19T18:24:06;20.77;34.19
74489;SHT31;62809;51.090;-115.358;2022-09-19T18:26:35;20.76;34.20
74489;SHT31;62809;51.090;-115.358;2022-09-19T18:29:05;20.75;34.20
74489;SHT31;62809;51.090;-115.358;2022-09-19T18:31:37;20.76;34.20
74489;SHT31;62809;51.090;-115.358;2022-09-19T18:34:04;20.75;34.20
74489;SHT31;62809;51.090;-115.358;2022-09-19T18:36:33;20.74;34.20
74489;SHT31;62809;51.090;-115.358;2022-09-19T18:39:03;20.73;34.20
74489;SHT31;62809;51.090;-115.358;2022-09-19T18:41:30;20.72;34.60
74489;SHT31;62809;51.090;-115.358;2022-09-19T18:44:00;20.70;35.40
74489;SHT31;62809;51.090;-115.358;2022-09-19T18:46:28;20.67;35.16
74489;SHT31;62809;51.090;-115.358;2022-09-19T18:48:55;20.65;35.18
74489;SHT31;62809;51.090;-115.358;2022-09-19T18:51:27;20.64;35.06
74489;SHT31;62809;51.090;-115.358;2022-09-19T18:53:57;20.66;35.15
74489;SHT31;62809;51.090;-115.358;2022-09-19T18:56:29;20.68;35.12
74489;SHT31;62809;51.090;-115.358;2022-09-19T18:58:56;20.71;35.09
74489;SHT31;62809;51.090;-115.358;2022-09-19T19:01:25;20.74;35.01
74489;SHT31;62809;51.090;-115.358;2022-09-19T19:03:53;20.77;34.87
74489;SHT31;62809;51.090;-115.358;2022-09-19T19:06:24;20.80;34.70
74489;SHT31;62809;51.090;-115.358;2022-09-19T19:08:54;20.83;34.71
74489;SHT31;62809;51.090;-115.358;2022-09-19T19:11:25;20.85;34.69
74489;SHT31;62809;51.090;-115.358;2022-09-19T19:13:57;20.88;34.71
74489;SHT31;62809;51.090;-115.358;2022-09-19T19:16:26;20.92;34.69
74489;SHT31;62809;51.090;-115.358;2022-09-19T19:18:55;20.94;34.57
74489;SHT31;62809;51.090;-115.358;2022-09-19T19:21:32;20.97;34.59
74489;SHT31;62809;51.090;-115.358;2022-09-19T19:24:04;20.98;34.54
74489;SHT31;62809;51.090;-115.358;2022-09-19T19:26:33;21.00;34.57
74489;SHT31;62809;51.090;-115.358;2022-09-19T19:29:11;21.02;34.51
74489;SHT31;62809;51.090;-115.358;2022-09-19T19:31:38;21.04;34.49
74489;SHT31;62809;51.090;-115.358;2022-09-19T19:34:06;21.05;34.41
74489;SHT31;62809;51.090;-115.358;2022-09-19T19:36:34;21.05;34.35
74489;SHT31;62809;51.090;-115.358;2022-09-19T19:39:02;21.08;34.30
74489;SHT31;62809;51.090;-115.358;2022-09-19T19:41:33;21.10;34.34
74489;SHT31;62809;51.090;-115.358;2022-09-19T19:44:03;21.11;34.32
74489;SHT31;62809;51.090;-115.358;2022-09-19T19:46:31;21.12;34.30
74489;SHT31;62809;51.090;-115.358;2022-09-19T19:49:04;21.16;34.28
74489;SHT31;62809;51.090;-115.358;2022-09-19T19:51:33;21.18;34.24
74489;SHT31;62809;51.090;-115.358;2022-09-19T19:54:04;21.20;34.10
74489;SHT31;62809;51.090;-115.358;2022-09-19T19:56:32;21.22;33.99